sensor_id;sensor_type;location;lat;lon;timestamp;temperature;humidity
66422;DHT22;53228;51.380;0.098;2022-11-11T00:01:45;14.00;99.90
66422;DHT22;53228;51.380;0.098;2022-11-11T00:04:34;14.10;99.90
66422;DHT22;53228;51.380;0.098;2022-11-11T00:07:27;14.10;99.90
66422;DHT22;53228;51.380;0.098;2022-11-11T00:10:16;14.10;99.90
66422;DHT22;53228;51.380;0.098;2022-11-11T00:13:04;14.10;99.90
66422;DHT22;53228;51.380;0.098;2022-11-11T00:15:51;14.20;99.90
66422;DHT22;53228;51.380;0.098;2022-11-11T00:18:42;14.20;99.90
66422;DHT22;53228;51.380;0.098;2022-11-11T00:21:48;14.20;99.90
66422;DHT22;53228;51.380;0.098;2022-11-11T00:24:53;14.20;99.90
66422;DHT22;53228;51.380;0.098;2022-11-11T00:27:52;14.20;99.90
66422;DHT22;53228;51.380;0.098;2022-11-11T00:30:38;14.20;99.90
66422;DHT22;53228;51.380;0.098;2022-11-11T00:33:25;14.20;99.90
66422;DHT22;53228;51.380;0.098;2022-11-11T00:36:14;14.20;99.90
66422;DHT22;53228;51.380;0.098;2022-11-11T00:39:01;14.20;99.90
66422;DHT22;53228;51.380;0.098;2022-11-11T00:41:48;14.20;99.90
66422;DHT22;53228;51.380;0.098;2022-11-11T00:44:40;14.20;99.90
66422;DHT22;53228;51.380;0.098;2022-11-11T00:47:29;14.20;99.90
66422;DHT22;53228;51.380;0.098;2022-11-11T00:50:36;14.30;99.90
66422;DHT22;53228;51.380;0.098;2022-11-11T00:53:46;14.30;99.90
66422;DHT22;53228;51.380;0.098;2022-11-11T00:56:33;14.30;99.90
66422;DHT22;53228;51.380;0.098;2022-11-11T00:59:21;14.30;99.90
66422;DHT22;53228;51.380;0.098;2022-11-11T01:02:10;14.30;99.90
66422;DHT22;53228;51.380;0.098;2022-11-11T01:04:56;14.30;99.90
66422;DHT22;53228;51.380;0.098;2022-11-11T01:07:46;14.30;99.90
66422;DHT22;53228;51.380;0.098;2022-11-11T01:10:37;14.30;99.90
66422;DHT22;53228;51.380;0.098;2022-11-11T01:13:31;14.30;99.90
66422;DHT22;53228;51.380;0.098;2022-11-11T01:16:23;14.30;99.90
66422;DHT22;53228;51.380;0.098;2022-11-11T01:19:12;14.30;99.90
66422;DHT22;53228;51.380;0.098;2022-11-11T01:21:59;14.30;99.90
66422;DHT22;53228;51.380;0.098;2022-11-11T01:24:50;14.40;99.90
66422;DHT22;53228;51.380;0.098;2022-11-11T01:27:37;14.40;99.90
66422;DHT22;53228;51.380;0.098;2022-11-11T01:30:26;14.40;99.90
66422;DHT22;53228;51.380;0.098;2022-11-11T01:33:18;14.30;99.90
66422;DHT22;53228;51.380;0.098;2022-11-11T01:36:16;14.40;99.90
66422;DHT22;53228;51.380;0.098;2022-11-11T01:39:05;14.30;99.90
66422;DHT22;53228;51.380;0.098;2022-11-11T01:41:51;14.30;99.90
66422;DHT22;53228;51.380;0.098;2022-11-11T01:44:49;14.30;99.90
66422;DHT22;53228;51.380;0.098;2022-11-11T01:47:36;14.30;99.90
66422;DHT22;53228;51.380;0.098;2022-11-11T01:51:27;14.30;99.90
66422;DHT22;53228;51.380;0.098;2022-11-11T01:54:23;14.30;99.90
66422;DHT22;53228;51.380;0.098;2022-11-11T01:57:18;14.30;99.90
66422;DHT22;53228;51.380;0.098;2022-11-11T02:00:12;14.30;99.90
66422;DHT22;53228;51.380;0.098;2022-11-11T02:03:09;14.30;99.90
66422;DHT22;53228;51.380;0.098;2022-11-11T02:05:56;14.30;99.90
66422;DHT22;53228;51.380;0.098;2022-11-11T02:08:43;14.40;99.90
66422;DHT22;53228;51.380;0.098;2022-11-11T02:11:34;14.40;99.90
66422;DHT22;53228;51.380;0.098;2022-11-11T02:14:43;14.40;99.90
66422;DHT22;53228;51.380;0.098;2022-11-11T02:17:33;14.40;99.90
66422;DHT22;53228;51.380;0.098;2022-11-11T02:20:29;14.50;99.90
66422;DHT22;53228;51.380;0.098;2022-11-11T02:23:21;14.50;99.90
66422;DHT22;53228;51.380;0.098;2022-11-11T02:26:10;14.60;99.90
66422;DHT22;53228;51.380;0.098;2022-11-11T02:29:00;14.60;99.90
66422;DHT22;53228;51.380;0.098;2022-11-11T02:31:48;14.60;99.90
66422;DHT22;53228;51.380;0.098;2022-11-11T02:34:38;14.60;99.90
66422;DHT22;53228;51.380;0.098;2022-11-11T02:37:26;14.60;99.90
66422;DHT22;53228;51.380;0.098;2022-11-11T02:40:32;14.60;99.90
66422;DHT22;53228;51.380;0.098;2022-11-11T02:43:20;14.60;99.90
66422;DHT22;53228;51.380;0.098;2022-11-11T02:46:07;14.60;99.90
66422;DHT22;53228;51.380;0.098;2022-11-11T02:48:57;14.50;99.90
66422;DHT22;53228;51.380;0.098;2022-11-11T02:51:48;14.50;99.90
66422;DHT22;53228;51.380;0.098;2022-11-11T02:54:39;14.40;99.90
66422;DHT22;53228;51.380;0.098;2022-11-11T02:57:28;14.40;99.90
66422;DHT22;53228;51.380;0.098;2022-11-11T03:00:18;14.40;99.90
66422;DHT22;53228;51.380;0.098;2022-11-11T03:03:08;14.30;99.90
66422;DHT22;53228;51.380;0.098;2022-11-11T03:05:56;14.30;99.90
66422;DHT22;53228;51.380;0.098;2022-11-11T03:08:45;14.20;99.90
66422;DHT22;53228;51.380;0.098;2022-11-11T03:11:34;14.20;99.90
66422;DHT22;53228;51.380;0.098;2022-11-11T03:14:24;14.20;99.90
66422;DHT22;53228;51.380;0.098;2022-11-11T03:17:16;14.20;99.90
66422;DHT22;53228;51.380;0.098;2022-11-11T03:20:20;14.20;99.90
66422;DHT22;53228;51.380;0.098;2022-11-11T03:23:30;14.20;99.90
66422;DHT22;53228;51.380;0.098;2022-11-11T03:26:18;14.30;99.90
66422;DHT22;53228;51.380;0.098;2022-11-11T03:29:09;14.30;99.90
66422;DHT22;53228;51.380;0.098;2022-11-11T03:32:01;14.30;99.90
66422;DHT22;53228;51.380;0.098;2022-11-11T03:34:48;14.30;99.90
66422;DHT22;53228;51.380;0.098;2022-11-11T03:37:35;14.30;99.90
66422;DHT22;53228;51.380;0.098;2022-11-11T03:40:44;14.30;99.90
66422;DHT22;53228;51.380;0.098;2022-11-11T03:43:36;14.30;99.90
66422;DHT22;53228;51.380;0.098;2022-11-11T03:46:22;14.30;99.90
66422;DHT22;53228;51.380;0.098;2022-11-11T03:49:11;14.30;99.90
66422;DHT22;53228;51.380;0.098;2022-11-11T03:51:58;14.30;99.90
66422;DHT22;53228;51.380;0.098;2022-11-11T03:54:47;14.30;99.90
66422;DHT22;53228;51.380;0.098;2022-11-11T03:57:35;14.20;99.90
66422;DHT22;53228;51.380;0.098;2022-11-11T04:00:27;14.20;99.90
66422;DHT22;53228;51.380;0.098;2022-11-11T04:03:18;14.30;99.90
66422;DHT22;53228;51.380;0.098;2022-11-11T04:06:23;14.30;99.90
66422;DHT22;53228;51.380;0.098;2022-11-11T04:09:31;14.20;99.90
66422;DHT22;53228;51.380;0.098;2022-11-11T04:12:39;14.20;99.90
66422;DHT22;53228;51.380;0.098;2022-11-11T04:15:45;14.20;99.90
66422;DHT22;53228;51.380;0.098;2022-11-11T04:18:50;14.20;99.90
66422;DHT22;53228;51.380;0.098;2022-11-11T04:21:58;14.20;99.90
66422;DHT22;53228;51.380;0.098;2022-11-11T04:24:47;14.20;99.90
66422;DHT22;53228;51.380;0.098;2022-11-11T04:27:56;14.20;99.90
66422;DHT22;53228;51.380;0.098;2022-11-11T04:31:03;14.20;99.90
66422;DHT22;53228;51.380;0.098;2022-11-11T04:33:49;14.20;99.90
66422;DHT22;53228;51.380;0.098;2022-11-11T04:36:38;14.20;99.90
66422;DHT22;53228;51.380;0.098;2022-11-11T04:39:24;14.20;99.90
66422;DHT22;53228;51.380;0.098;2022-11-11T04:42:32;14.20;99.90
66422;DHT22;53228;51.380;0.098;2022-11-11T04:45:24;14.20;99.90
66422;DHT22;53228;51.380;0.098;2022-11-11T04:48:13;14.20;99.90
66422;DHT22;53228;51.380;0.098;2022-11-11T04:51:04;14.10;99.90
66422;DHT22;53228;51.380;0.098;2022-11-11T04:53:51;14.10;99.90
66422;DHT22;53228;51.380;0.098;2022-11-11T04:56:37;14.10;99.90
66422;DHT22;53228;51.380;0.098;2022-11-11T04:59:32;14.10;99.90
66422;DHT22;53228;51.380;0.098;2022-11-11T05:02:19;14.10;99.90
66422;DHT22;53228;51.380;0.098;2022-11-11T05:05:25;14.10;99.90
66422;DHT22;53228;51.380;0.098;2022-11-11T05:08:14;14.10;99.90
66422;DHT22;53228;51.380;0.098;2022-11-11T05:11:41;14.10;99.90
66422;DHT22;53228;51.380;0.098;2022-11-11T05:14:28;14.00;99.90
66422;DHT22;53228;51.380;0.098;2022-11-11T05:17:33;14.10;99.90
66422;DHT22;53228;51.380;0.098;2022-11-11T05:20:38;14.10;99.90
66422;DHT22;53228;51.380;0.098;2022-11-11T05:23:46;14.10;99.90
66422;DHT22;53228;51.380;0.098;2022-11-11T05:26:51;14.00;99.90
66422;DHT22;53228;51.380;0.098;2022-11-11T05:29:40;14.10;99.90
66422;DHT22;53228;51.380;0.098;2022-11-11T05:32:26;14.10;99.90
66422;DHT22;53228;51.380;0.098;2022-11-11T05:35:13;14.20;99.90
66422;DHT22;53228;51.380;0.098;2022-11-11T05:38:06;14.20;99.90
66422;DHT22;53228;51.380;0.098;2022-11-11T05:41:07;14.20;99.90
66422;DHT22;53228;51.380;0.098;2022-11-11T05:43:55;14.20;99.90
66422;DHT22;53228;51.380;0.098;2022-11-11T05:46:44;14.20;99.90
66422;DHT22;53228;51.380;0.098;2022-11-11T05:49:32;14.20;99.90
66422;DHT22;53228;51.380;0.098;2022-11-11T05:52:18;14.20;99.90
66422;DHT22;53228;51.380;0.098;2022-11-11T05:55:10;14.20;99.90
66422;DHT22;53228;51.380;0.098;2022-11-11T05:58:02;14.20;99.90
66422;DHT22;53228;51.380;0.098;2022-11-11T06:00:50;14.20;99.90
66422;DHT22;53228;51.380;0.098;2022-11-11T06:03:37;14.20;99.90
66422;DHT22;53228;51.380;0.098;2022-11-11T06:06:26;14.20;99.90
66422;DHT22;53228;51.380;0.098;2022-11-11T06:09:19;14.20;99.90
66422;DHT22;53228;51.380;0.098;2022-11-11T06:12:06;14.20;99.90
66422;DHT22;53228;51.380;0.098;2022-11-11T06:14:55;14.20;99.90
66422;DHT22;53228;51.380;0.098;2022-11-11T06:17:41;14.20;99.90
66422;DHT22;53228;51.380;0.098;2022-11-11T06:20:31;14.20;99.90
66422;DHT22;53228;51.380;0.098;2022-11-11T06:23:20;14.30;99.90
66422;DHT22;53228;51.380;0.098;2022-11-11T06:26:11;14.20;99.90
66422;DHT22;53228;51.380;0.098;2022-11-11T06:29:00;14.30;99.90
66422;DHT22;53228;51.380;0.098;2022-11-11T06:31:50;14.30;99.90
66422;DHT22;53228;51.380;0.098;2022-11-11T06:34:36;14.20;99.90
66422;DHT22;53228;51.380;0.098;2022-11-11T06:37:27;14.20;99.90
66422;DHT22;53228;51.380;0.098;2022-11-11T06:40:13;14.20;99.90
66422;DHT22;53228;51.380;0.098;2022-11-11T06:43:07;14.30;99.90
66422;DHT22;53228;51.380;0.098;2022-11-11T06:45:59;14.20;99.90
66422;DHT22;53228;51.380;0.098;2022-11-11T06:48:48;14.20;99.90
66422;DHT22;53228;51.380;0.098;2022-11-11T06:51:37;14.20;99.90
66422;DHT22;53228;51.380;0.098;2022-11-11T06:54:31;14.20;99.90
66422;DHT22;53228;51.380;0.098;2022-11-11T06:57:23;14.20;99.90
66422;DHT22;53228;51.380;0.098;2022-11-11T07:00:13;14.20;99.90
66422;DHT22;53228;51.380;0.098;2022-11-11T07:03:08;14.20;99.90
66422;DHT22;53228;51.380;0.098;2022-11-11T07:05:54;14.20;99.90
66422;DHT22;53228;51.380;0.098;2022-11-11T07:08:44;14.10;99.90
66422;DHT22;53228;51.380;0.098;2022-11-11T07:11:30;14.10;99.90
66422;DHT22;53228;51.380;0.098;2022-11-11T07:14:16;14.10;99.90
66422;DHT22;53228;51.380;0.098;2022-11-11T07:17:10;14.10;99.90
66422;DHT22;53228;51.380;0.098;2022-11-11T07:19:56;14.10;99.90
66422;DHT22;53228;51.380;0.098;2022-11-11T07:22:45;14.00;99.90
66422;DHT22;53228;51.380;0.098;2022-11-11T07:25:34;14.00;99.90
66422;DHT22;53228;51.380;0.098;2022-11-11T07:28:23;14.00;99.90
66422;DHT22;53228;51.380;0.098;2022-11-11T07:31:10;14.00;99.90
66422;DHT22;53228;51.380;0.098;2022-11-11T07:33:56;14.00;99.90
66422;DHT22;53228;51.380;0.098;2022-11-11T07:36:45;14.00;99.90
66422;DHT22;53228;51.380;0.098;2022-11-11T07:39:34;14.00;99.90
66422;DHT22;53228;51.380;0.098;2022-11-11T07:42:21;13.90;99.90
66422;DHT22;53228;51.380;0.098;2022-11-11T07:45:23;13.90;99.90
66422;DHT22;53228;51.380;0.098;2022-11-11T07:48:10;13.90;99.90
66422;DHT22;53228;51.380;0.098;2022-11-11T07:50:56;13.90;99.90
66422;DHT22;53228;51.380;0.098;2022-11-11T07:53:42;14.00;99.90
66422;DHT22;53228;51.380;0.098;2022-11-11T07:56:31;14.00;99.90
66422;DHT22;53228;51.380;0.098;2022-11-11T07:59:23;14.00;99.90
66422;DHT22;53228;51.380;0.098;2022-11-11T08:02:10;14.00;99.90
66422;DHT22;53228;51.380;0.098;2022-11-11T08:05:01;14.00;99.90
66422;DHT22;53228;51.380;0.098;2022-11-11T08:07:47;14.10;99.90
66422;DHT22;53228;51.380;0.098;2022-11-11T08:10:36;14.20;99.90
66422;DHT22;53228;51.380;0.098;2022-11-11T08:13:25;14.20;99.90
66422;DHT22;53228;51.380;0.098;2022-11-11T08:16:29;14.30;99.90
66422;DHT22;53228;51.380;0.098;2022-11-11T08:19:16;14.30;99.90
66422;DHT22;53228;51.380;0.098;2022-11-11T08:22:04;14.40;99.90
66422;DHT22;53228;51.380;0.098;2022-11-11T08:24:51;14.40;99.90
66422;DHT22;53228;51.380;0.098;2022-11-11T08:28:02;14.40;99.90
66422;DHT22;53228;51.380;0.098;2022-11-11T08:30:56;14.50;99.90
66422;DHT22;53228;51.380;0.098;2022-11-11T08:33:50;14.50;99.90
66422;DHT22;53228;51.380;0.098;2022-11-11T08:36:39;14.50;99.90
66422;DHT22;53228;51.380;0.098;2022-11-11T08:39:25;14.50;99.90
66422;DHT22;53228;51.380;0.098;2022-11-11T08:42:14;14.50;99.90
66422;DHT22;53228;51.380;0.098;2022-11-11T08:45:00;14.50;99.90
66422;DHT22;53228;51.380;0.098;2022-11-11T08:47:47;14.50;99.90
66422;DHT22;53228;51.380;0.098;2022-11-11T08:50:35;14.50;99.90
66422;DHT22;53228;51.380;0.098;2022-11-11T08:53:22;14.50;99.90
66422;DHT22;53228;51.380;0.098;2022-11-11T08:56:09;14.50;99.90
66422;DHT22;53228;51.380;0.098;2022-11-11T08:59:01;14.50;99.90
66422;DHT22;53228;51.380;0.098;2022-11-11T09:01:48;14.50;99.90
66422;DHT22;53228;51.380;0.098;2022-11-11T09:04:40;14.60;99.90
66422;DHT22;53228;51.380;0.098;2022-11-11T09:07:32;14.50;99.90
66422;DHT22;53228;51.380;0.098;2022-11-11T09:10:23;14.60;99.90
66422;DHT22;53228;51.380;0.098;2022-11-11T09:13:10;14.60;99.90
66422;DHT22;53228;51.380;0.098;2022-11-11T09:15:57;14.60;99.90
66422;DHT22;53228;51.380;0.098;2022-11-11T09:18:49;14.60;99.90
66422;DHT22;53228;51.380;0.098;2022-11-11T09:21:38;14.70;99.90
66422;DHT22;53228;51.380;0.098;2022-11-11T09:24:27;14.70;99.90
66422;DHT22;53228;51.380;0.098;2022-11-11T09:27:13;14.70;99.90
66422;DHT22;53228;51.380;0.098;2022-11-11T09:30:03;14.70;99.90
66422;DHT22;53228;51.380;0.098;2022-11-11T09:32:49;14.80;99.90
66422;DHT22;53228;51.380;0.098;2022-11-11T09:35:35;14.80;99.90
66422;DHT22;53228;51.380;0.098;2022-11-11T09:38:24;14.80;99.90
66422;DHT22;53228;51.380;0.098;2022-11-11T09:42:01;14.80;99.90
66422;DHT22;53228;51.380;0.098;2022-11-11T09:50:32;14.90;99.90
66422;DHT22;53228;51.380;0.098;2022-11-11T09:53:35;15.00;99.90
66422;DHT22;53228;51.380;0.098;2022-11-11T09:56:25;15.00;99.90
66422;DHT22;53228;51.380;0.098;2022-11-11T09:59:25;15.00;99.90
66422;DHT22;53228;51.380;0.098;2022-11-11T10:02:28;15.10;99.90
66422;DHT22;53228;51.380;0.098;2022-11-11T10:05:19;15.10;99.90
66422;DHT22;53228;51.380;0.098;2022-11-11T10:11:53;15.10;99.90
66422;DHT22;53228;51.380;0.098;2022-11-11T10:14:45;15.10;99.90
66422;DHT22;53228;51.380;0.098;2022-11-11T10:17:33;15.10;99.90
66422;DHT22;53228;51.380;0.098;2022-11-11T10:20:28;15.10;99.90
66422;DHT22;53228;51.380;0.098;2022-11-11T10:23:35;15.10;99.90
66422;DHT22;53228;51.380;0.098;2022-11-11T10:26:39;15.10;99.90
66422;DHT22;53228;51.380;0.098;2022-11-11T10:29:30;15.10;99.90
66422;DHT22;53228;51.380;0.098;2022-11-11T10:32:26;15.10;99.90
66422;DHT22;53228;51.380;0.098;2022-11-11T10:35:22;15.20;99.90
66422;DHT22;53228;51.380;0.098;2022-11-11T10:44:28;15.20;99.90
66422;DHT22;53228;51.380;0.098;2022-11-11T10:50:30;15.30;99.90
66422;DHT22;53228;51.380;0.098;2022-11-11T10:59:28;15.30;99.90
66422;DHT22;53228;51.380;0.098;2022-11-11T11:02:26;15.30;99.90
66422;DHT22;53228;51.380;0.098;2022-11-11T11:05:21;15.40;99.90
66422;DHT22;53228;51.380;0.098;2022-11-11T11:08:37;15.40;99.90
66422;DHT22;53228;51.380;0.098;2022-11-11T11:11:37;15.40;99.90
66422;DHT22;53228;51.380;0.098;2022-11-11T11:14:37;15.40;99.90
66422;DHT22;53228;51.380;0.098;2022-11-11T11:17:31;15.40;99.90
66422;DHT22;53228;51.380;0.098;2022-11-11T11:20:20;15.40;99.90
66422;DHT22;53228;51.380;0.098;2022-11-11T11:23:07;15.50;99.90
66422;DHT22;53228;51.380;0.098;2022-11-11T11:25:53;15.50;99.90
66422;DHT22;53228;51.380;0.098;2022-11-11T11:31:39;15.60;99.90
66422;DHT22;53228;51.380;0.098;2022-11-11T11:34:44;15.60;99.90
66422;DHT22;53228;51.380;0.098;2022-11-11T11:37:50;15.60;99.90
66422;DHT22;53228;51.380;0.098;2022-11-11T11:40:54;15.70;99.90
66422;DHT22;53228;51.380;0.098;2022-11-11T11:43:47;15.70;99.90
66422;DHT22;53228;51.380;0.098;2022-11-11T11:46:43;15.80;99.90
66422;DHT22;53228;51.380;0.098;2022-11-11T12:05:07;16.10;99.90
66422;DHT22;53228;51.380;0.098;2022-11-11T12:11:27;16.30;99.90
66422;DHT22;53228;51.380;0.098;2022-11-11T12:17:49;16.50;99.90
66422;DHT22;53228;51.380;0.098;2022-11-11T12:20:49;16.60;99.90
66422;DHT22;53228;51.380;0.098;2022-11-11T12:23:57;16.60;99.90
66422;DHT22;53228;51.380;0.098;2022-11-11T12:27:04;16.60;99.90
66422;DHT22;53228;51.380;0.098;2022-11-11T12:29:58;16.60;99.90
66422;DHT22;53228;51.380;0.098;2022-11-11T12:38:57;16.60;99.90
66422;DHT22;53228;51.380;0.098;2022-11-11T12:45:23;16.60;99.90
66422;DHT22;53228;51.380;0.098;2022-11-11T12:51:58;16.60;99.90
66422;DHT22;53228;51.380;0.098;2022-11-11T13:04:33;16.60;99.90
66422;DHT22;53228;51.380;0.098;2022-11-11T13:07:55;16.60;99.90
66422;DHT22;53228;51.380;0.098;2022-11-11T13:16:54;16.60;99.90
66422;DHT22;53228;51.380;0.098;2022-11-11T13:19:56;16.60;99.90
66422;DHT22;53228;51.380;0.098;2022-11-11T13:22:48;16.60;99.90
66422;DHT22;53228;51.380;0.098;2022-11-11T13:25:39;16.70;99.90
66422;DHT22;53228;51.380;0.098;2022-11-11T13:28:37;16.70;99.90
66422;DHT22;53228;51.380;0.098;2022-11-11T13:31:32;16.60;99.90
66422;DHT22;53228;51.380;0.098;2022-11-11T13:34:23;16.60;99.90
66422;DHT22;53228;51.380;0.098;2022-11-11T13:37:30;16.50;99.90
66422;DHT22;53228;51.380;0.098;2022-11-11T13:43:30;16.40;99.90
66422;DHT22;53228;51.380;0.098;2022-11-11T13:46:38;16.40;99.90
66422;DHT22;53228;51.380;0.098;2022-11-11T13:49:41;16.40;99.90
66422;DHT22;53228;51.380;0.098;2022-11-11T13:52:33;16.40;99.90
66422;DHT22;53228;51.380;0.098;2022-11-11T13:55:38;16.40;99.90
66422;DHT22;53228;51.380;0.098;2022-11-11T13:58:36;16.40;99.90
66422;DHT22;53228;51.380;0.098;2022-11-11T14:01:24;16.40;99.90
66422;DHT22;53228;51.380;0.098;2022-11-11T14:04:25;16.40;99.90
66422;DHT22;53228;51.380;0.098;2022-11-11T14:16:12;16.40;99.90
66422;DHT22;53228;51.380;0.098;2022-11-11T14:22:28;16.30;99.90
66422;DHT22;53228;51.380;0.098;2022-11-11T14:25:27;16.30;99.90
66422;DHT22;53228;51.380;0.098;2022-11-11T14:28:30;16.30;99.90
66422;DHT22;53228;51.380;0.098;2022-11-11T14:34:21;16.30;99.90
66422;DHT22;53228;51.380;0.098;2022-11-11T14:40:31;16.20;99.90
66422;DHT22;53228;51.380;0.098;2022-11-11T14:43:37;16.20;99.90
66422;DHT22;53228;51.380;0.098;2022-11-11T14:46:24;16.20;99.90
66422;DHT22;53228;51.380;0.098;2022-11-11T14:52:42;16.20;99.90
66422;DHT22;53228;51.380;0.098;2022-11-11T14:55:34;16.20;99.90
66422;DHT22;53228;51.380;0.098;2022-11-11T14:58:32;16.20;99.90
66422;DHT22;53228;51.380;0.098;2022-11-11T15:01:22;16.10;99.90
66422;DHT22;53228;51.380;0.098;2022-11-11T15:04:13;16.10;99.90
66422;DHT22;53228;51.380;0.098;2022-11-11T15:07:02;16.10;99.90
66422;DHT22;53228;51.380;0.098;2022-11-11T15:35:31;15.90;99.90
66422;DHT22;53228;51.380;0.098;2022-11-11T15:38:23;15.90;99.90
66422;DHT22;53228;51.380;0.098;2022-11-11T15:41:35;15.90;99.90
66422;DHT22;53228;51.380;0.098;2022-11-11T15:47:13;15.80;99.90
66422;DHT22;53228;51.380;0.098;2022-11-11T15:50:00;15.80;99.90
66422;DHT22;53228;51.380;0.098;2022-11-11T15:52:59;15.80;99.90
66422;DHT22;53228;51.380;0.098;2022-11-11T15:55:54;15.70;99.90
66422;DHT22;53228;51.380;0.098;2022-11-11T15:58:44;15.70;99.90
66422;DHT22;53228;51.380;0.098;2022-11-11T16:01:33;15.70;99.90
66422;DHT22;53228;51.380;0.098;2022-11-11T16:04:21;15.60;99.90
66422;DHT22;53228;51.380;0.098;2022-11-11T16:07:49;15.50;99.90
66422;DHT22;53228;51.380;0.098;2022-11-11T16:10:45;15.50;99.90
66422;DHT22;53228;51.380;0.098;2022-11-11T16:13:55;15.50;99.90
66422;DHT22;53228;51.380;0.098;2022-11-11T16:16:54;15.50;99.90
66422;DHT22;53228;51.380;0.098;2022-11-11T16:19:44;15.40;99.90
66422;DHT22;53228;51.380;0.098;2022-11-11T16:22:36;15.40;99.90
66422;DHT22;53228;51.380;0.098;2022-11-11T16:25:29;15.40;99.90
66422;DHT22;53228;51.380;0.098;2022-11-11T16:28:15;15.40;99.90
66422;DHT22;53228;51.380;0.098;2022-11-11T16:37:14;15.30;99.90
66422;DHT22;53228;51.380;0.098;2022-11-11T16:40:42;15.30;99.90
66422;DHT22;53228;51.380;0.098;2022-11-11T16:43:49;15.30;99.90
66422;DHT22;53228;51.380;0.098;2022-11-11T16:49:29;15.20;99.90
66422;DHT22;53228;51.380;0.098;2022-11-11T16:52:24;15.20;99.90
66422;DHT22;53228;51.380;0.098;2022-11-11T16:55:36;15.20;99.90
66422;DHT22;53228;51.380;0.098;2022-11-11T16:58:23;15.20;99.90
66422;DHT22;53228;51.380;0.098;2022-11-11T17:01:13;15.20;99.90
66422;DHT22;53228;51.380;0.098;2022-11-11T17:04:04;15.20;99.90
66422;DHT22;53228;51.380;0.098;2022-11-11T17:06:57;15.20;99.90
66422;DHT22;53228;51.380;0.098;2022-11-11T17:09:47;15.20;99.90
66422;DHT22;53228;51.380;0.098;2022-11-11T17:12:35;15.20;99.90
66422;DHT22;53228;51.380;0.098;2022-11-11T17:15:23;15.20;99.90
66422;DHT22;53228;51.380;0.098;2022-11-11T17:18:09;15.20;99.90
66422;DHT22;53228;51.380;0.098;2022-11-11T17:20:58;15.20;99.90
66422;DHT22;53228;51.380;0.098;2022-11-11T17:23:45;15.20;99.90
66422;DHT22;53228;51.380;0.098;2022-11-11T17:26:34;15.10;99.90
66422;DHT22;53228;51.380;0.098;2022-11-11T17:29:25;15.10;99.90
66422;DHT22;53228;51.380;0.098;2022-11-11T17:32:12;15.00;99.90
66422;DHT22;53228;51.380;0.098;2022-11-11T17:34:58;15.00;99.90
66422;DHT22;53228;51.380;0.098;2022-11-11T17:37:44;15.00;99.90
66422;DHT22;53228;51.380;0.098;2022-11-11T17:40:34;15.00;99.90
66422;DHT22;53228;51.380;0.098;2022-11-11T17:43:23;15.00;99.90
66422;DHT22;53228;51.380;0.098;2022-11-11T17:46:14;15.00;99.90
66422;DHT22;53228;51.380;0.098;2022-11-11T17:49:03;15.00;99.90
66422;DHT22;53228;51.380;0.098;2022-11-11T17:51:49;15.00;99.90
66422;DHT22;53228;51.380;0.098;2022-11-11T17:54:37;14.90;99.90
66422;DHT22;53228;51.380;0.098;2022-11-11T17:57:24;15.00;99.90
66422;DHT22;53228;51.380;0.098;2022-11-11T18:00:14;15.00;99.90
66422;DHT22;53228;51.380;0.098;2022-11-11T18:03:01;15.00;99.90
66422;DHT22;53228;51.380;0.098;2022-11-11T18:05:53;15.00;99.90
66422;DHT22;53228;51.380;0.098;2022-11-11T18:08:43;15.00;99.90
66422;DHT22;53228;51.380;0.098;2022-11-11T18:11:33;14.90;99.90
66422;DHT22;53228;51.380;0.098;2022-11-11T18:14:25;14.90;99.90
66422;DHT22;53228;51.380;0.098;2022-11-11T18:17:11;14.90;99.90
66422;DHT22;53228;51.380;0.098;2022-11-11T18:20:03;14.80;99.90
66422;DHT22;53228;51.380;0.098;2022-11-11T18:22:54;14.80;99.90
66422;DHT22;53228;51.380;0.098;2022-11-11T18:25:45;14.70;99.90
66422;DHT22;53228;51.380;0.098;2022-11-11T18:28:36;14.70;99.90
66422;DHT22;53228;51.380;0.098;2022-11-11T18:31:22;14.70;99.90
66422;DHT22;53228;51.380;0.098;2022-11-11T18:34:09;14.60;99.90
66422;DHT22;53228;51.380;0.098;2022-11-11T18:36:55;14.60;99.90
66422;DHT22;53228;51.380;0.098;2022-11-11T18:39:44;14.60;99.90
66422;DHT22;53228;51.380;0.098;2022-11-11T18:42:32;14.60;99.90
66422;DHT22;53228;51.380;0.098;2022-11-11T18:45:21;14.60;99.90
66422;DHT22;53228;51.380;0.098;2022-11-11T18:48:14;14.50;99.90
66422;DHT22;53228;51.380;0.098;2022-11-11T18:51:01;14.50;99.90
66422;DHT22;53228;51.380;0.098;2022-11-11T18:53:48;14.60;99.90
66422;DHT22;53228;51.380;0.098;2022-11-11T18:56:38;14.60;99.90
66422;DHT22;53228;51.380;0.098;2022-11-11T18:59:27;14.50;99.90
66422;DHT22;53228;51.380;0.098;2022-11-11T19:02:17;14.50;99.90
66422;DHT22;53228;51.380;0.098;2022-11-11T19:05:08;14.50;99.90
66422;DHT22;53228;51.380;0.098;2022-11-11T19:07:57;14.50;99.90
66422;DHT22;53228;51.380;0.098;2022-11-11T19:10:43;14.40;99.90
66422;DHT22;53228;51.380;0.098;2022-11-11T19:13:35;14.40;99.90
66422;DHT22;53228;51.380;0.098;2022-11-11T19:16:26;14.30;99.90
66422;DHT22;53228;51.380;0.098;2022-11-11T19:19:13;14.20;99.90
66422;DHT22;53228;51.380;0.098;2022-11-11T19:22:04;14.10;99.90
66422;DHT22;53228;51.380;0.098;2022-11-11T19:24:55;14.10;99.90
66422;DHT22;53228;51.380;0.098;2022-11-11T19:27:42;14.00;99.90
66422;DHT22;53228;51.380;0.098;2022-11-11T19:30:33;13.90;99.90
66422;DHT22;53228;51.380;0.098;2022-11-11T19:33:22;13.90;99.90
66422;DHT22;53228;51.380;0.098;2022-11-11T19:36:18;13.80;99.90
66422;DHT22;53228;51.380;0.098;2022-11-11T19:39:08;13.70;99.90
66422;DHT22;53228;51.380;0.098;2022-11-11T19:41:57;13.60;99.90
66422;DHT22;53228;51.380;0.098;2022-11-11T19:44:51;13.60;99.90
66422;DHT22;53228;51.380;0.098;2022-11-11T19:47:37;13.50;99.90
66422;DHT22;53228;51.380;0.098;2022-11-11T19:50:23;13.40;99.90
66422;DHT22;53228;51.380;0.098;2022-11-11T19:53:12;13.30;99.90
66422;DHT22;53228;51.380;0.098;2022-11-11T19:56:05;13.30;99.90
66422;DHT22;53228;51.380;0.098;2022-11-11T19:58:53;13.30;99.90
66422;DHT22;53228;51.380;0.098;2022-11-11T20:01:40;13.20;99.90
66422;DHT22;53228;51.380;0.098;2022-11-11T20:04:28;13.20;99.90
66422;DHT22;53228;51.380;0.098;2022-11-11T20:07:14;13.10;99.90
66422;DHT22;53228;51.380;0.098;2022-11-11T20:12:50;13.00;99.90
66422;DHT22;53228;51.380;0.098;2022-11-11T20:15:38;13.00;99.90
66422;DHT22;53228;51.380;0.098;2022-11-11T20:18:24;13.00;99.90
66422;DHT22;53228;51.380;0.098;2022-11-11T20:21:11;12.90;99.90
66422;DHT22;53228;51.380;0.098;2022-11-11T20:24:01;12.90;99.90
66422;DHT22;53228;51.380;0.098;2022-11-11T20:26:50;12.90;99.90
66422;DHT22;53228;51.380;0.098;2022-11-11T20:29:39;12.90;99.90
66422;DHT22;53228;51.380;0.098;2022-11-11T20:32:26;12.80;99.90
66422;DHT22;53228;51.380;0.098;2022-11-11T20:35:13;12.80;99.90